Time;durP1;ratioP1;P1;durP2;ratioP2;P2;SDS_P1;SDS_P2;PMS_P1;PMS_P2;Temp;Humidity;BMP_temperature;BMP_pressure;BME280_temperature;BME280_humidity;BME280_pressure;Samples;Min_cycle;Max_cycle;Signal;HPM_P1;HPM_P2
2022/06/24 00:00:35;;;;;;;5.13;1.80;;;18.70;66.90;;;;;;5050775;28;46363;-63
2022/06/24 00:03:01;;;;;;;6.33;1.70;;;18.80;67.90;;;;;;5045203;28;46552;-62
2022/06/24 00:05:29;;;;;;;9.50;1.30;;;18.80;66.50;;;;;;5052562;28;45868;-63
2022/06/24 00:07:55;;;;;;;3.10;1.40;;;18.80;66.20;;;;;;5049207;28;47061;-63
2022/06/24 00:10:22;;;;;;;4.77;1.50;;;18.80;66.30;;;;;;5050144;28;46494;-64
2022/06/24 00:12:50;;;;;;;9.07;1.80;;;18.80;66.30;;;;;;5046485;28;45831;-64
2022/06/24 00:15:33;;;;;;;5.17;1.73;;;18.80;66.40;;;;;;5044054;28;45869;-63
2022/06/24 00:18:14;;;;;;;4.80;1.60;;;18.80;66.30;;;;;;5050125;28;46966;-65
2022/06/24 00:20:44;;;;;;;6.47;1.70;;;18.80;66.50;;;;;;5040960;28;46428;-68
2022/06/24 00:23:09;;;;;;;5.20;1.67;;;18.70;66.40;;;;;;5047738;28;46608;-63
2022/06/24 00:25:38;;;;;;;5.90;1.83;;;18.70;66.50;;;;;;5048284;28;46583;-64
2022/06/24 00:28:09;;;;;;;5.53;1.57;;;18.70;66.60;;;;;;5045130;28;46378;-63
2022/06/24 00:30:36;;;;;;;6.23;1.57;;;18.60;66.60;;;;;;5040693;28;46577;-65
2022/06/24 00:33:13;;;;;;;5.30;1.93;;;18.60;66.70;;;;;;5041366;28;46264;-64
2022/06/24 00:35:44;;;;;;;7.17;1.87;;;18.60;66.90;;;;;;5042731;28;46440;-64
2022/06/24 00:38:24;;;;;;;5.40;1.57;;;18.50;67.00;;;;;;5042286;28;46388;-66
2022/06/24 00:41:03;;;;;;;5.30;1.70;;;18.50;67.10;;;;;;5043029;28;45851;-65
2022/06/24 00:43:38;;;;;;;4.93;1.60;;;18.40;67.10;;;;;;5041055;28;46489;-64
2022/06/24 00:46:15;;;;;;;7.10;1.80;;;18.40;67.10;;;;;;5040715;28;46511;-63
2022/06/24 00:48:46;;;;;;;9.33;1.90;;;18.40;67.20;;;;;;5043872;28;47409;-63
2022/06/24 00:51:12;;;;;;;6.83;2.07;;;18.40;67.40;;;;;;5042996;28;46456;-63
2022/06/24 00:53:45;;;;;;;6.13;1.90;;;18.30;67.30;;;;;;5047500;28;46430;-63
2022/06/24 00:56:16;;;;;;;9.90;1.60;;;18.40;67.50;;;;;;5037764;28;45850;-64
2022/06/24 00:59:05;;;;;;;4.00;1.60;;;18.40;67.30;;;;;;5045126;28;46319;-64
2022/06/24 01:01:34;;;;;;;5.93;1.70;;;18.40;67.20;;;;;;5035693;28;46417;-64
2022/06/24 01:04:01;;;;;;;5.60;1.90;;;18.50;67.00;;;;;;5046241;28;46314;-63
2022/06/24 01:06:29;;;;;;;3.77;1.60;;;18.50;66.80;;;;;;5043566;28;46439;-63
2022/06/24 01:08:56;;;;;;;4.30;1.60;;;18.50;67.00;;;;;;5046234;28;46638;-63
2022/06/24 01:11:25;;;;;;;4.60;1.63;;;18.50;67.00;;;;;;5044665;28;46379;-63
2022/06/24 01:13:52;;;;;;;5.27;1.80;;;18.50;67.20;;;;;;5047606;28;46423;-63
2022/06/24 01:16:21;;;;;;;5.70;1.70;;;18.40;66.90;;;;;;5048843;28;45938;-63
2022/06/24 01:18:57;;;;;;;6.30;2.10;;;18.40;67.00;;;;;;5047628;28;46680;-64
2022/06/24 01:21:34;;;;;;;5.10;1.73;;;18.40;67.10;;;;;;5045319;28;46469;-64
2022/06/24 01:24:21;;;;;;;9.23;1.77;;;18.40;67.10;;;;;;5047315;28;46418;-64
2022/06/24 01:26:56;;;;;;;8.00;2.03;;;18.40;67.20;;;;;;5040563;28;46389;-65
2022/06/24 01:29:22;;;;;;;10.40;1.80;;;18.40;67.00;;;;;;5045267;28;46576;-64
2022/06/24 01:31:50;;;;;;;6.20;1.70;;;18.50;66.90;;;;;;5049127;28;46521;-64
2022/06/24 01:34:17;;;;;;;5.57;1.97;;;18.50;67.00;;;;;;5050772;28;46527;-62
2022/06/24 01:36:43;;;;;;;4.50;2.10;;;18.40;67.00;;;;;;5048603;28;46527;-64
2022/06/24 01:39:09;;;;;;;5.33;1.60;;;18.40;67.10;;;;;;5047518;28;48043;-65
2022/06/24 01:41:35;;;;;;;12.93;1.93;;;18.40;67.00;;;;;;5050029;28;46404;-66
2022/06/24 01:44:01;;;;;;;9.10;1.80;;;18.40;66.90;;;;;;5047505;28;46381;-63
2022/06/24 01:46:27;;;;;;;5.80;2.00;;;18.40;67.10;;;;;;5046435;28;46477;-65
2022/06/24 01:48:53;;;;;;;5.30;1.87;;;18.40;67.30;;;;;;5045451;28;47071;-67
2022/06/24 01:51:20;;;;;;;5.90;1.90;;;18.30;67.30;;;;;;5045048;28;46529;-62
2022/06/24 01:53:46;;;;;;;6.30;1.80;;;18.30;67.50;;;;;;5038898;28;46520;-64
2022/06/24 01:56:11;;;;;;;7.93;1.83;;;18.20;67.80;;;;;;5041838;28;46417;-65
2022/06/24 01:58:37;;;;;;;9.20;1.97;;;18.20;67.90;;;;;;5046610;28;47275;-64
2022/06/24 02:01:03;;;;;;;9.50;2.00;;;18.20;68.10;;;;;;5046781;28;46529;-63
2022/06/24 02:03:31;;;;;;;3.33;1.47;;;18.10;68.30;;;;;;5044282;28;46471;-62
2022/06/24 02:06:02;;;;;;;5.83;1.83;;;18.10;68.40;;;;;;5044816;28;46636;-63
2022/06/24 02:08:27;;;;;;;8.47;2.00;;;18.10;68.50;;;;;;5048107;28;46491;-64
2022/06/24 02:13:38;;;;;;;12.30;2.07;;;18.10;68.20;;;;;;5044302;28;46628;-64
2022/06/24 02:16:04;;;;;;;4.90;1.67;;;18.10;68.10;;;;;;5042991;28;46551;-63
2022/06/24 02:18:31;;;;;;;7.43;2.37;;;18.10;68.20;;;;;;5044123;28;46484;-65
2022/06/24 02:20:59;;;;;;;9.10;2.30;;;18.00;68.30;;;;;;5042763;28;46365;-63
2022/06/24 02:23:25;;;;;;;4.43;1.80;;;18.00;68.50;;;;;;5042234;28;46424;-64
2022/06/24 02:25:52;;;;;;;8.23;2.20;;;17.90;68.90;;;;;;5048315;28;46434;-63
2022/06/24 02:28:17;;;;;;;7.33;2.47;;;17.80;69.20;;;;;;5044658;28;48055;-65
2022/06/24 02:30:45;;;;;;;8.43;1.80;;;17.80;69.20;;;;;;5045114;28;46505;-64
2022/06/24 02:33:11;;;;;;;8.30;2.00;;;17.80;69.20;;;;;;5046922;28;46357;-64
2022/06/24 02:35:38;;;;;;;6.80;2.00;;;17.80;70.40;;;;;;5044700;28;46433;-64
2022/06/24 02:38:04;;;;;;;5.87;2.20;;;17.80;69.20;;;;;;5041254;28;46521;-63
2022/06/24 02:40:45;;;;;;;13.23;2.70;;;17.80;69.30;;;;;;5046361;28;46306;-63
2022/06/24 02:43:24;;;;;;;6.93;2.00;;;17.80;69.60;;;;;;5039476;28;46462;-64
2022/06/24 02:45:52;;;;;;;6.73;2.33;;;17.80;69.60;;;;;;5053153;28;46378;-63
2022/06/24 02:48:19;;;;;;;8.80;2.13;;;17.70;69.60;;;;;;5043849;28;46652;-65
2022/06/24 02:50:47;;;;;;;9.60;2.40;;;17.80;69.40;;;;;;5040253;28;46335;-63
2022/06/24 02:53:17;;;;;;;9.50;2.20;;;17.90;69.40;;;;;;5048673;28;46452;-63
2022/06/24 02:55:45;;;;;;;6.83;2.03;;;17.90;69.30;;;;;;5041698;28;46617;-64
2022/06/24 02:58:11;;;;;;;5.30;2.07;;;18.00;69.10;;;;;;5046084;28;46676;-65
2022/06/24 03:00:39;;;;;;;6.53;2.13;;;18.00;69.10;;;;;;5048799;28;46295;-63
2022/06/24 03:03:05;;;;;;;5.33;2.57;;;18.00;68.80;;;;;;5044824;28;46395;-64
2022/06/24 03:05:31;;;;;;;8.40;2.60;;;18.10;68.90;;;;;;5047941;28;46639;-64
2022/06/24 03:07:57;;;;;;;6.30;2.10;;;18.10;68.90;;;;;;5045324;28;47486;-64
2022/06/24 03:10:23;;;;;;;10.97;2.23;;;18.10;68.80;;;;;;5043919;28;45814;-63
2022/06/24 03:12:49;;;;;;;3.53;1.70;;;18.20;68.80;;;;;;5043001;28;46896;-64
2022/06/24 03:15:15;;;;;;;8.33;2.10;;;18.20;68.60;;;;;;5050176;28;46441;-63
2022/06/24 03:17:40;;;;;;;6.97;1.97;;;18.30;68.60;;;;;;5047601;28;46424;-63
2022/06/24 03:20:08;;;;;;;6.27;2.20;;;18.30;68.50;;;;;;5050387;28;46610;-64
2022/06/24 03:22:34;;;;;;;5.73;2.03;;;18.40;68.60;;;;;;5046981;28;46437;-62
2022/06/24 03:24:59;;;;;;;11.90;2.50;;;18.40;68.30;;;;;;5031195;28;46624;-63
2022/06/24 03:27:25;;;;;;;9.47;2.13;;;18.40;68.30;;;;;;5046796;28;46478;-63
2022/06/24 03:29:51;;;;;;;8.03;2.07;;;18.40;68.30;;;;;;5041788;28;45856;-62
2022/06/24 03:32:17;;;;;;;8.77;2.27;;;18.40;68.30;;;;;;5047287;28;46394;-63
2022/06/24 03:34:43;;;;;;;6.50;1.93;;;18.50;68.40;;;;;;5051462;28;45893;-63
2022/06/24 03:37:08;;;;;;;7.43;1.90;;;18.50;68.50;;;;;;5055174;28;49587;-63
2022/06/24 03:39:34;;;;;;;6.30;2.87;;;18.50;68.20;;;;;;5046220;28;46371;-63
2022/06/24 03:42:00;;;;;;;6.87;2.30;;;18.50;68.00;;;;;;5045792;28;45716;-63
2022/06/24 03:44:26;;;;;;;8.43;2.20;;;18.60;67.90;;;;;;5051050;28;46387;-65
2022/06/24 03:46:51;;;;;;;6.20;2.20;;;18.60;67.60;;;;;;5046540;28;46056;-64
2022/06/24 03:49:19;;;;;;;11.93;2.07;;;18.60;67.60;;;;;;5041303;28;46327;-62
2022/06/24 03:51:44;;;;;;;6.47;2.40;;;18.70;67.60;;;;;;5026353;27;46487;-63
2022/06/24 03:54:10;;;;;;;4.10;1.97;;;18.70;67.60;;;;;;5033618;28;46608;-63
2022/06/24 03:56:36;;;;;;;9.77;2.07;;;18.80;67.60;;;;;;5033590;28;46354;-63
2022/06/24 03:59:01;;;;;;;4.70;1.70;;;18.80;67.60;;;;;;5033515;28;46400;-63
2022/06/24 04:01:27;;;;;;;6.50;2.10;;;18.70;67.50;;;;;;5029090;28;46485;-64
2022/06/24 04:03:53;;;;;;;5.00;2.07;;;18.70;67.50;;;;;;5032377;28;46520;-66
2022/06/24 04:06:19;;;;;;;15.53;2.30;;;18.80;67.60;;;;;;5034739;28;46952;-64
2022/06/24 04:08:45;;;;;;;8.00;1.80;;;18.80;67.50;;;;;;5033035;28;46754;-63
2022/06/24 04:11:12;;;;;;;11.23;2.50;;;18.80;67.60;;;;;;5031271;28;46559;-63
2022/06/24 04:13:37;;;;;;;9.80;2.47;;;18.80;67.60;;;;;;5031802;28;46332;-63
2022/06/24 04:16:04;;;;;;;10.03;2.63;;;18.80;67.40;;;;;;5030627;28;46415;-63
2022/06/24 04:18:30;;;;;;;12.03;2.50;;;18.80;67.20;;;;;;5030498;28;46589;-62
2022/06/24 04:20:55;;;;;;;5.40;1.93;;;18.90;67.00;;;;;;5031020;28;46483;-62
2022/06/24 04:23:21;;;;;;;9.20;1.77;;;18.90;67.00;;;;;;5030582;28;45913;-63
2022/06/24 04:25:47;;;;;;;12.13;2.40;;;18.90;66.70;;;;;;5031664;28;47266;-63
2022/06/24 04:28:12;;;;;;;9.00;2.73;;;19.00;66.60;;;;;;5031262;28;46366;-63
2022/06/24 04:30:38;;;;;;;11.73;2.03;;;18.90;66.60;;;;;;5027268;28;46457;-65
2022/06/24 04:33:04;;;;;;;10.77;2.97;;;19.00;66.80;;;;;;5032106;28;46463;-62
2022/06/24 04:35:30;;;;;;;7.40;1.80;;;19.00;68.20;;;;;;5031374;28;47064;-63
2022/06/24 04:37:55;;;;;;;11.10;2.07;;;19.00;66.70;;;;;;5032774;28;46449;-63
2022/06/24 04:40:21;;;;;;;7.90;2.57;;;19.10;66.60;;;;;;5032777;28;46438;-64
2022/06/24 04:42:47;;;;;;;9.30;2.53;;;19.10;66.50;;;;;;5032073;28;46632;-63
2022/06/24 04:45:13;;;;;;;7.17;2.37;;;19.20;66.40;;;;;;5031719;28;47003;-62
2022/06/24 04:47:39;;;;;;;7.93;2.80;;;19.30;66.00;;;;;;5031258;28;46442;-62
2022/06/24 04:50:07;;;;;;;10.83;2.30;;;19.40;65.80;;;;;;5032259;28;46469;-63
2022/06/24 04:52:32;;;;;;;18.43;2.37;;;19.50;65.50;;;;;;5035156;28;46451;-62
2022/06/24 04:54:59;;;;;;;11.30;2.63;;;19.60;65.20;;;;;;5034192;28;46413;-65
2022/06/24 04:57:25;;;;;;;7.83;2.20;;;19.80;65.20;;;;;;5029544;28;46391;-64
2022/06/24 04:59:50;;;;;;;14.90;2.60;;;20.10;64.50;;;;;;5034389;28;46545;-63
2022/06/24 05:02:16;;;;;;;5.90;2.17;;;21.50;63.30;;;;;;5030941;28;46455;-63
2022/06/24 05:04:41;;;;;;;9.83;1.93;;;22.60;60.80;;;;;;5033129;28;46396;-63
2022/06/24 05:07:07;;;;;;;15.77;2.40;;;24.20;56.70;;;;;;5030492;28;46384;-63
2022/06/24 05:09:34;;;;;;;5.50;1.70;;;24.20;55.00;;;;;;5033134;28;46414;-63
2022/06/24 05:12:00;;;;;;;7.57;1.80;;;23.80;55.10;;;;;;5032359;28;45918;-63
2022/06/24 05:14:26;;;;;;;12.97;2.33;;;23.50;55.70;;;;;;5029921;28;46898;-63
2022/06/24 05:16:52;;;;;;;7.40;1.83;;;23.30;55.50;;;;;;5030441;28;46358;-65
2022/06/24 05:19:17;;;;;;;7.53;2.93;;;23.10;55.70;;;;;;5030406;28;46442;-63
2022/06/24 05:21:43;;;;;;;5.43;1.80;;;22.90;56.00;;;;;;5029450;28;46438;-63
2022/06/24 05:24:09;;;;;;;6.77;1.90;;;22.60;56.50;;;;;;5031700;28;46977;-62
2022/06/24 05:26:34;;;;;;;8.40;1.97;;;22.40;56.80;;;;;;5029616;28;46375;-61
2022/06/24 05:29:00;;;;;;;7.87;1.80;;;22.20;57.10;;;;;;5031929;28;46387;-64
2022/06/24 05:31:26;;;;;;;5.23;1.90;;;22.00;57.40;;;;;;5033039;28;46390;-62
2022/06/24 05:33:51;;;;;;;10.00;1.80;;;22.00;57.50;;;;;;5034216;28;46979;-63
2022/06/24 05:36:17;;;;;;;3.50;1.50;;;22.40;56.80;;;;;;5038173;28;46328;-63
2022/06/24 05:38:44;;;;;;;3.07;1.50;;;22.50;56.60;;;;;;5032950;28;46333;-63
2022/06/24 05:41:09;;;;;;;7.03;1.93;;;22.60;56.10;;;;;;5033333;28;46401;-63
2022/06/24 05:43:35;;;;;;;7.70;1.60;;;22.70;55.50;;;;;;5033878;28;46467;-63
2022/06/24 05:46:00;;;;;;;5.77;1.60;;;23.50;54.40;;;;;;5034986;28;46284;-64
2022/06/24 05:48:27;;;;;;;7.43;1.60;;;23.90;52.70;;;;;;5034683;28;45832;-63
2022/06/24 05:50:53;;;;;;;13.07;1.90;;;24.50;51.80;;;;;;5033153;28;46639;-62
2022/06/24 05:56:03;;;;;;;5.93;1.63;;;24.30;51.60;;;;;;5037658;28;46491;-61
2022/06/24 05:58:30;;;;;;;9.40;2.03;;;24.10;51.50;;;;;;5035597;28;46366;-62
2022/06/24 06:00:56;;;;;;;8.47;1.80;;;24.20;51.50;;;;;;5038392;28;46426;-62
2022/06/24 06:03:23;;;;;;;16.13;2.43;;;24.30;51.10;;;;;;5036177;28;47097;-61
2022/06/24 06:05:48;;;;;;;10.57;2.13;;;24.40;50.60;;;;;;5041862;28;46158;-60
2022/06/24 06:08:15;;;;;;;19.03;2.67;;;24.40;50.10;;;;;;5036144;28;46479;-61
2022/06/24 06:10:43;;;;;;;6.33;1.80;;;24.50;49.60;;;;;;5030643;28;46616;-62
2022/06/24 06:13:10;;;;;;;15.10;2.37;;;24.50;49.30;;;;;;5033018;28;47076;-63
2022/06/24 06:15:36;;;;;;;12.33;2.60;;;24.50;49.30;;;;;;5032928;28;46381;-63
2022/06/24 06:18:01;;;;;;;8.20;2.43;;;24.70;49.20;;;;;;5039068;28;45895;-62
2022/06/24 06:20:27;;;;;;;8.60;2.37;;;25.00;49.00;;;;;;5036162;28;46590;-61
2022/06/24 06:22:53;;;;;;;9.40;1.90;;;25.20;48.30;;;;;;5038764;28;47222;-62
2022/06/24 06:25:18;;;;;;;9.60;2.47;;;25.50;47.40;;;;;;5032603;28;46314;-62
2022/06/24 06:27:44;;;;;;;8.80;2.70;;;25.80;46.40;;;;;;5033111;28;46521;-66
2022/06/24 06:30:11;;;;;;;9.33;2.77;;;26.30;45.10;;;;;;5030538;28;46461;-63
2022/06/24 06:32:36;;;;;;;10.77;2.57;;;26.70;43.50;;;;;;5034467;28;47261;-63
2022/06/24 06:35:03;;;;;;;10.93;2.57;;;26.50;43.00;;;;;;5032302;28;46723;-63
2022/06/24 06:37:29;;;;;;;8.23;2.30;;;26.20;43.20;;;;;;5035386;28;46382;-64
2022/06/24 06:39:56;;;;;;;15.97;3.03;;;25.80;43.90;;;;;;5036708;28;46407;-68
2022/06/24 06:42:21;;;;;;;8.63;2.47;;;25.30;44.60;;;;;;5033847;28;47841;-63
2022/06/24 06:44:47;;;;;;;10.23;2.20;;;24.90;45.20;;;;;;5034817;28;46402;-63
2022/06/24 06:47:13;;;;;;;13.63;3.93;;;24.60;45.80;;;;;;5036563;28;46363;-62
2022/06/24 06:49:39;;;;;;;15.20;2.57;;;24.30;46.00;;;;;;5032343;28;46454;-64
2022/06/24 06:52:05;;;;;;;12.80;3.40;;;24.20;46.30;;;;;;5032579;28;46974;-64
2022/06/24 06:54:31;;;;;;;7.03;2.80;;;24.10;46.10;;;;;;5032678;28;46473;-61
2022/06/24 06:56:57;;;;;;;11.73;2.30;;;24.00;46.30;;;;;;5032319;28;46434;-63
2022/06/24 06:59:22;;;;;;;11.23;3.40;;;23.90;46.50;;;;;;5033442;28;46626;-66
2022/06/24 07:01:48;;;;;;;16.00;2.87;;;23.70;46.70;;;;;;5030823;28;47282;-62
2022/06/24 07:04:14;;;;;;;12.07;2.30;;;23.50;48.30;;;;;;5031158;28;46477;-62
2022/06/24 07:06:40;;;;;;;18.03;2.80;;;23.20;47.60;;;;;;5032923;28;46416;-61
2022/06/24 07:09:06;;;;;;;8.90;2.50;;;23.10;48.30;;;;;;5034970;28;46422;-65
2022/06/24 07:11:31;;;;;;;7.10;2.43;;;22.90;48.70;;;;;;5030454;28;46416;-63
2022/06/24 07:13:57;;;;;;;12.00;2.77;;;22.90;48.90;;;;;;5035167;28;46614;-62
2022/06/24 07:16:22;;;;;;;7.93;2.40;;;22.70;49.00;;;;;;5032938;28;46351;-64
2022/06/24 07:18:48;;;;;;;9.70;2.40;;;22.60;49.40;;;;;;5032294;28;46657;-63
2022/06/24 07:21:14;;;;;;;14.37;3.70;;;22.60;49.40;;;;;;5032848;28;47111;-64
2022/06/24 07:23:40;;;;;;;10.03;2.50;;;22.60;49.20;;;;;;5029686;28;46522;-65
2022/06/24 07:26:06;;;;;;;8.20;2.47;;;22.70;49.30;;;;;;5037398;28;46487;-64
2022/06/24 07:28:34;;;;;;;11.63;2.60;;;22.80;49.00;;;;;;5030684;28;46411;-65
2022/06/24 07:31:00;;;;;;;9.63;2.90;;;22.80;49.20;;;;;;5032649;28;46776;-62
2022/06/24 07:33:25;;;;;;;14.73;2.87;;;22.90;48.90;;;;;;5031659;28;45866;-61
2022/06/24 07:35:51;;;;;;;8.30;2.60;;;22.80;49.00;;;;;;5033464;28;46432;-61
2022/06/24 07:38:17;;;;;;;7.80;2.13;;;22.80;49.10;;;;;;5032993;28;46438;-65
2022/06/24 07:40:42;;;;;;;15.83;2.60;;;22.70;49.40;;;;;;5033351;28;46501;-61
2022/06/24 07:43:08;;;;;;;7.50;2.53;;;22.70;49.90;;;;;;5033586;28;45780;-63
2022/06/24 07:45:34;;;;;;;12.07;3.13;;;22.70;50.10;;;;;;5032054;28;45868;-63
2022/06/24 07:48:00;;;;;;;9.17;2.70;;;22.80;50.20;;;;;;5031727;28;46689;-62
2022/06/24 07:50:25;;;;;;;13.67;3.03;;;22.90;50.10;;;;;;5029101;28;47190;-62
2022/06/24 07:52:51;;;;;;;16.53;3.00;;;23.10;49.50;;;;;;5033397;28;46533;-63
2022/06/24 07:58:01;;;;;;;13.93;3.20;;;23.70;48.40;;;;;;5034697;28;46506;-62
2022/06/24 08:00:27;;;;;;;7.67;2.27;;;23.90;48.10;;;;;;5030367;28;47342;-60
2022/06/24 08:02:53;;;;;;;11.63;2.93;;;23.80;47.90;;;;;;5030413;28;46419;-62
2022/06/24 08:05:18;;;;;;;9.20;2.77;;;24.00;47.70;;;;;;5031866;28;46638;-64
2022/06/24 08:07:44;;;;;;;11.10;3.20;;;24.10;47.30;;;;;;5032047;28;46470;-61
2022/06/24 08:10:10;;;;;;;12.30;2.83;;;24.10;47.00;;;;;;5028187;28;47323;-62
2022/06/24 08:12:36;;;;;;;15.00;3.00;;;24.00;47.10;;;;;;5033598;28;46367;-62
2022/06/24 08:15:01;;;;;;;13.57;3.50;;;23.90;47.40;;;;;;5028695;28;46360;-64
2022/06/24 08:17:27;;;;;;;8.73;3.10;;;23.80;47.70;;;;;;5029652;28;46339;-64
2022/06/24 08:19:53;;;;;;;13.70;3.50;;;23.70;47.80;;;;;;5028743;28;46410;-61
2022/06/24 08:22:20;;;;;;;10.80;2.30;;;23.50;47.90;;;;;;5028109;28;46343;-62
2022/06/24 08:24:46;;;;;;;12.90;3.00;;;23.40;48.10;;;;;;5035970;28;46445;-61
2022/06/24 08:27:12;;;;;;;16.37;3.00;;;23.20;48.60;;;;;;5036011;28;45989;-62
2022/06/24 08:29:38;;;;;;;11.00;2.77;;;23.10;48.90;;;;;;5030160;28;46377;-64
2022/06/24 08:32:04;;;;;;;8.43;3.00;;;23.00;49.40;;;;;;5033196;28;46363;-61
2022/06/24 08:34:29;;;;;;;9.33;3.37;;;23.00;49.40;;;;;;5032775;28;46369;-61
2022/06/24 08:36:55;;;;;;;7.30;2.83;;;23.20;49.10;;;;;;5034339;28;46443;-62
2022/06/24 08:39:20;;;;;;;16.60;3.23;;;23.50;48.80;;;;;;5031346;28;47020;-61
2022/06/24 08:41:48;;;;;;;7.13;2.77;;;23.80;48.10;;;;;;5031919;28;46379;-62
2022/06/24 08:44:14;;;;;;;10.40;2.90;;;23.90;47.90;;;;;;5030110;28;46482;-61
2022/06/24 08:46:40;;;;;;;7.80;2.97;;;23.90;47.60;;;;;;5036456;28;46609;-62
2022/06/24 08:49:06;;;;;;;13.83;3.00;;;23.90;47.50;;;;;;5033217;28;47112;-64
2022/06/24 08:51:34;;;;;;;15.60;2.83;;;24.00;47.20;;;;;;5030452;28;46190;-62
2022/06/24 08:54:02;;;;;;;9.03;2.73;;;24.20;46.60;;;;;;5031699;28;46422;-62
2022/06/24 08:56:28;;;;;;;9.20;2.87;;;24.10;46.10;;;;;;5030227;28;46736;-61
2022/06/24 08:58:55;;;;;;;9.40;2.47;;;24.20;45.80;;;;;;5032118;28;46323;-63
2022/06/24 09:01:21;;;;;;;9.00;2.83;;;24.30;45.70;;;;;;5029945;28;46568;-64
2022/06/24 09:03:47;;;;;;;15.00;3.73;;;24.40;45.50;;;;;;5030182;28;46508;-62
2022/06/24 09:06:17;;;;;;;12.77;3.37;;;24.30;45.60;;;;;;5031100;28;46618;-62
2022/06/24 09:08:51;;;;;;;13.57;3.90;;;24.20;46.10;;;;;;5030273;28;46363;-64
2022/06/24 09:11:17;;;;;;;16.83;3.90;;;24.00;46.40;;;;;;5030177;28;46850;-61
2022/06/24 09:13:55;;;;;;;13.60;3.13;;;23.70;46.80;;;;;;5033445;28;46375;-62
2022/06/24 09:16:24;;;;;;;11.40;3.00;;;23.70;47.20;;;;;;5030565;28;46382;-61
2022/06/24 09:18:52;;;;;;;9.43;3.30;;;23.60;47.50;;;;;;5031986;28;46424;-63
2022/06/24 09:21:23;;;;;;;8.63;2.93;;;23.60;47.80;;;;;;5031987;28;46679;-62
2022/06/24 09:23:59;;;;;;;12.63;3.53;;;23.50;47.90;;;;;;5032441;28;46417;-62
2022/06/24 09:26:32;;;;;;;13.73;3.13;;;23.60;47.80;;;;;;5031770;28;46926;-62
2022/06/24 09:28:59;;;;;;;12.07;3.40;;;23.80;47.50;;;;;;5032769;28;47124;-65
2022/06/24 09:31:27;;;;;;;14.83;3.60;;;24.00;47.10;;;;;;5028351;28;46398;-62
2022/06/24 09:33:52;;;;;;;8.80;2.87;;;24.20;46.70;;;;;;5030333;28;46645;-62
2022/06/24 09:36:24;;;;;;;15.53;3.10;;;24.60;46.20;;;;;;5032882;28;46521;-61
2022/06/24 09:39:04;;;;;;;17.03;3.87;;;24.90;45.30;;;;;;5028084;28;46580;-63
2022/06/24 09:41:31;;;;;;;11.70;3.30;;;25.20;44.00;;;;;;5030944;28;46537;-62
2022/06/24 09:43:58;;;;;;;12.30;2.90;;;25.50;43.30;;;;;;5030523;28;46410;-61
2022/06/24 09:46:25;;;;;;;16.73;2.90;;;25.70;42.30;;;;;;5028467;28;46425;-63
2022/06/24 09:49:00;;;;;;;7.57;2.93;;;26.10;41.20;;;;;;5030555;28;48220;-62
2022/06/24 09:51:28;;;;;;;13.60;2.90;;;26.20;39.40;;;;;;5025113;28;46554;-63
2022/06/24 09:53:54;;;;;;;9.30;2.90;;;26.30;39.60;;;;;;5029969;28;46624;-62
2022/06/24 09:56:22;;;;;;;12.77;2.17;;;26.50;38.60;;;;;;5031280;28;46502;-65
2022/06/24 10:01:40;;;;;;;12.77;2.90;;;26.90;36.50;;;;;;5027459;28;46640;-64
2022/06/24 10:04:12;;;;;;;8.97;2.67;;;27.00;35.60;;;;;;5028862;28;46485;-64
2022/06/24 10:06:41;;;;;;;9.87;2.70;;;27.00;35.30;;;;;;5028361;28;46366;-63
2022/06/24 10:09:07;;;;;;;9.73;2.90;;;26.90;35.20;;;;;;5029550;28;47268;-61
2022/06/24 10:11:35;;;;;;;9.47;2.83;;;26.60;36.10;;;;;;5026251;28;46705;-62
2022/06/24 10:14:02;;;;;;;7.43;2.23;;;26.40;36.10;;;;;;5033238;28;46366;-61
2022/06/24 10:16:27;;;;;;;9.00;2.80;;;26.50;35.60;;;;;;5030655;28;45940;-64
2022/06/24 10:18:55;;;;;;;10.53;2.80;;;26.70;34.80;;;;;;5029353;28;46919;-62
2022/06/24 10:21:21;;;;;;;12.47;2.50;;;26.70;34.00;;;;;;5030861;28;46930;-62
2022/06/24 10:23:47;;;;;;;10.27;2.73;;;26.90;33.30;;;;;;5032857;28;46516;-62
2022/06/24 10:26:34;;;;;;;11.03;2.50;;;27.00;32.80;;;;;;5035192;28;46497;-61
2022/06/24 10:29:00;;;;;;;9.77;2.27;;;27.10;32.10;;;;;;5034430;28;47158;-61
2022/06/24 10:31:44;;;;;;;7.57;2.47;;;26.90;32.40;;;;;;5028410;28;46755;-61
2022/06/24 10:34:20;;;;;;;9.30;2.20;;;26.80;32.20;;;;;;5031955;28;46617;-61
2022/06/24 10:36:46;;;;;;;8.57;2.27;;;26.60;32.60;;;;;;5032145;28;46393;-63
2022/06/24 10:39:16;;;;;;;13.10;3.00;;;26.40;33.30;;;;;;5031815;28;46453;-62
2022/06/24 10:41:42;;;;;;;7.47;2.33;;;26.20;33.10;;;;;;5032256;28;46587;-67
2022/06/24 10:44:26;;;;;;;11.80;2.97;;;26.00;33.40;;;;;;5025069;28;47585;-62
2022/06/24 10:47:04;;;;;;;7.83;2.10;;;26.10;32.70;;;;;;5033244;28;46698;-61
2022/06/24 10:49:52;;;;;;;11.33;2.87;;;26.20;32.70;;;;;;5033626;28;46426;-63
2022/06/24 10:52:45;;;;;;;10.00;2.33;;;26.20;32.70;;;;;;5033688;28;46433;-61
2022/06/24 10:55:17;;;;;;;10.00;2.67;;;26.40;32.60;;;;;;5035753;28;46650;-61
2022/06/24 10:57:43;;;;;;;8.33;2.40;;;26.60;32.00;;;;;;5032160;28;46581;-60
2022/06/24 11:00:14;;;;;;;11.80;2.60;;;26.70;31.40;;;;;;5033624;28;46418;-62
2022/06/24 11:02:44;;;;;;;6.83;2.33;;;27.10;30.50;;;;;;5032440;28;46772;-60
2022/06/24 11:05:17;;;;;;;8.87;2.57;;;27.50;29.70;;;;;;5029910;28;46291;-62
2022/06/24 11:07:44;;;;;;;10.53;2.20;;;27.80;27.60;;;;;;5032470;28;46397;-60
2022/06/24 11:10:21;;;;;;;10.60;3.30;;;27.90;27.50;;;;;;5031440;28;46937;-60
2022/06/24 11:12:53;;;;;;;8.83;2.70;;;27.80;27.50;;;;;;5032398;28;46226;-59
2022/06/24 11:15:31;;;;;;;6.20;2.13;;;27.70;27.90;;;;;;5036232;28;46780;-59
2022/06/24 11:17:56;;;;;;;9.80;2.43;;;27.80;27.50;;;;;;5031072;28;46371;-60
2022/06/24 11:20:23;;;;;;;10.10;2.20;;;27.70;27.40;;;;;;5028617;28;46460;-61
2022/06/24 11:22:48;;;;;;;8.80;2.40;;;27.30;27.30;;;;;;5032097;28;46485;-59
2022/06/24 11:25:15;;;;;;;9.47;2.60;;;27.30;27.20;;;;;;5031520;28;46834;-59
2022/06/24 11:27:41;;;;;;;7.83;2.20;;;27.40;27.20;;;;;;5033988;28;46612;-63
2022/06/24 11:30:09;;;;;;;18.30;2.50;;;27.80;26.70;;;;;;5029891;28;48212;-59
2022/06/24 11:32:53;;;;;;;8.40;2.20;;;28.20;26.20;;;;;;5034110;28;46570;-60
2022/06/24 11:35:20;;;;;;;8.97;2.57;;;28.40;25.40;;;;;;5030630;28;46455;-60
2022/06/24 11:37:46;;;;;;;10.33;2.47;;;28.50;25.70;;;;;;5032299;28;46435;-62
2022/06/24 11:40:27;;;;;;;12.37;2.70;;;28.40;25.80;;;;;;5029131;28;46527;-61
2022/06/24 11:42:54;;;;;;;5.63;1.80;;;28.30;25.80;;;;;;5028901;28;46574;-61
2022/06/24 11:45:39;;;;;;;9.43;2.50;;;28.00;26.60;;;;;;5032926;28;48299;-59
2022/06/24 11:48:07;;;;;;;16.30;2.87;;;28.00;26.30;;;;;;5031942;28;46564;-60
2022/06/24 11:50:33;;;;;;;11.13;2.07;;;27.90;26.50;;;;;;5032467;28;46443;-59
2022/06/24 11:53:00;;;;;;;9.77;2.20;;;27.80;26.60;;;;;;5031471;28;46724;-59
2022/06/24 11:55:36;;;;;;;8.33;2.83;;;27.70;26.60;;;;;;5029358;28;46515;-61
2022/06/24 11:58:05;;;;;;;11.77;3.47;;;27.60;26.50;;;;;;5029330;28;46624;-60
2022/06/24 12:00:33;;;;;;;10.13;2.50;;;27.40;27.20;;;;;;5030362;28;46346;-59
2022/06/24 12:03:00;;;;;;;10.70;2.87;;;27.20;27.20;;;;;;5027769;28;46523;-59
2022/06/24 12:05:28;;;;;;;8.37;2.60;;;26.90;27.00;;;;;;5032214;28;46421;-61
2022/06/24 12:07:56;;;;;;;10.53;2.70;;;27.00;27.00;;;;;;5030215;28;46667;-60
2022/06/24 12:10:22;;;;;;;11.23;2.43;;;27.00;27.00;;;;;;5030480;28;47842;-60
2022/06/24 12:13:00;;;;;;;12.80;4.97;;;27.10;27.10;;;;;;5030437;28;46382;-59
2022/06/24 12:15:50;;;;;;;10.33;2.93;;;26.90;27.00;;;;;;5028845;28;46452;-60
2022/06/24 12:18:18;;;;;;;7.70;2.50;;;26.80;26.90;;;;;;5031556;28;46378;-60
2022/06/24 12:20:58;;;;;;;9.83;2.80;;;26.60;26.80;;;;;;5028433;28;46504;-60
2022/06/24 12:23:23;;;;;;;12.17;2.60;;;26.50;27.10;;;;;;5031760;28;46416;-62
2022/06/24 12:25:51;;;;;;;12.67;2.57;;;26.20;27.80;;;;;;5029628;28;46613;-61
2022/06/24 12:28:22;;;;;;;10.27;2.37;;;26.10;29.40;;;;;;5033458;28;46442;-62
2022/06/24 12:31:14;;;;;;;16.47;2.50;;;26.00;28.80;;;;;;5032268;28;46361;-62
2022/06/24 12:33:51;;;;;;;6.23;2.27;;;25.80;29.10;;;;;;5029628;28;46390;-61
2022/06/24 12:36:19;;;;;;;11.17;3.10;;;25.60;29.70;;;;;;5031428;28;45857;-62
2022/06/24 12:38:45;;;;;;;12.50;2.63;;;25.50;30.30;;;;;;5032820;28;46350;-61
2022/06/24 12:41:18;;;;;;;6.33;2.33;;;25.30;31.10;;;;;;5030882;28;46044;-60
2022/06/24 12:43:52;;;;;;;10.10;2.40;;;25.00;32.10;;;;;;5029097;28;46469;-60
2022/06/24 12:46:20;;;;;;;13.47;2.83;;;24.90;33.30;;;;;;5032837;28;45947;-60
2022/06/24 12:51:29;;;;;;;9.53;2.87;;;24.40;34.50;;;;;;5029256;28;46387;-61
2022/06/24 12:53:56;;;;;;;12.50;3.10;;;24.10;35.80;;;;;;5028698;28;46335;-61
2022/06/24 12:56:22;;;;;;;9.53;2.60;;;23.80;37.40;;;;;;5032044;28;46433;-60
2022/06/24 12:58:52;;;;;;;7.00;2.60;;;23.50;38.10;;;;;;5026394;28;46437;-61
2022/06/24 13:01:18;;;;;;;8.83;2.30;;;23.30;39.70;;;;;;5030656;28;46121;-61